Terminal Aerodrome Forecast
Issued by NWS

Home | Current Version | Previous Version | Text Only | Print | Product List | Glossary On
Versions: 1 2 3 4 5 6 7 8 9 10 11 12 13
000
FTUS43 KAPX 301120
TAFMBL
TAF
KMBL 301120Z 3012/3112 07006KT P6SM SCT200
     FM302000 04007KT P6SM BKN050 BKN200
     FM310100 07006KT P6SM BKN100
     FM310500 00000KT P6SM SCT080=

USA.gov is the U.S. government's official web portal to all federal, state and local government web resources and services.